sensor_id;sensor_type;location;lat;lon;timestamp;P1;durP1;ratioP1;P2;durP2;ratioP2
14770;SDS011;7477;45.222;5.688;2023-05-07T00:00:13;2.75;;;1.70;;
14770;SDS011;7477;45.222;5.688;2023-05-07T00:03:34;1.85;;;1.52;;
14770;SDS011;7477;45.222;5.688;2023-05-07T00:06:53;1.90;;;1.60;;
14770;SDS011;7477;45.222;5.688;2023-05-07T00:10:14;2.80;;;1.27;;
14770;SDS011;7477;45.222;5.688;2023-05-07T00:13:33;3.20;;;1.85;;
14770;SDS011;7477;45.222;5.688;2023-05-07T00:16:55;1.67;;;1.58;;
14770;SDS011;7477;45.222;5.688;2023-05-07T00:20:14;1.88;;;1.52;;
14770;SDS011;7477;45.222;5.688;2023-05-07T00:23:34;5.18;;;1.50;;
14770;SDS011;7477;45.222;5.688;2023-05-07T00:26:53;1.40;;;1.30;;
14770;SDS011;7477;45.222;5.688;2023-05-07T00:30:12;1.60;;;1.50;;
14770;SDS011;7477;45.222;5.688;2023-05-07T00:33:32;2.80;;;2.35;;
14770;SDS011;7477;45.222;5.688;2023-05-07T00:36:51;2.45;;;1.80;;
14770;SDS011;7477;45.222;5.688;2023-05-07T00:40:10;3.53;;;1.70;;
14770;SDS011;7477;45.222;5.688;2023-05-07T00:43:30;2.28;;;1.85;;
14770;SDS011;7477;45.222;5.688;2023-05-07T00:46:50;2.80;;;1.80;;
14770;SDS011;7477;45.222;5.688;2023-05-07T00:50:10;5.93;;;1.80;;
14770;SDS011;7477;45.222;5.688;2023-05-07T00:53:31;1.92;;;1.40;;
14770;SDS011;7477;45.222;5.688;2023-05-07T00:56:50;6.75;;;1.75;;
14770;SDS011;7477;45.222;5.688;2023-05-07T01:00:10;2.90;;;1.70;;
14770;SDS011;7477;45.222;5.688;2023-05-07T01:03:31;4.70;;;1.60;;
14770;SDS011;7477;45.222;5.688;2023-05-07T01:06:50;2.53;;;1.70;;
14770;SDS011;7477;45.222;5.688;2023-05-07T01:10:11;2.30;;;1.95;;
14770;SDS011;7477;45.222;5.688;2023-05-07T01:13:31;3.35;;;2.13;;
14770;SDS011;7477;45.222;5.688;2023-05-07T01:16:51;2.20;;;2.00;;
14770;SDS011;7477;45.222;5.688;2023-05-07T01:20:11;5.53;;;1.95;;
14770;SDS011;7477;45.222;5.688;2023-05-07T01:23:30;2.20;;;1.92;;
14770;SDS011;7477;45.222;5.688;2023-05-07T01:26:50;2.25;;;1.80;;
14770;SDS011;7477;45.222;5.688;2023-05-07T01:30:09;1.45;;;1.35;;
14770;SDS011;7477;45.222;5.688;2023-05-07T01:33:29;3.58;;;1.60;;
14770;SDS011;7477;45.222;5.688;2023-05-07T01:36:52;4.30;;;1.73;;
14770;SDS011;7477;45.222;5.688;2023-05-07T01:40:14;4.43;;;1.77;;
14770;SDS011;7477;45.222;5.688;2023-05-07T01:43:34;2.08;;;1.70;;
14770;SDS011;7477;45.222;5.688;2023-05-07T01:46:53;2.17;;;1.60;;
14770;SDS011;7477;45.222;5.688;2023-05-07T01:50:13;3.00;;;1.80;;
14770;SDS011;7477;45.222;5.688;2023-05-07T01:53:37;2.20;;;1.58;;
14770;SDS011;7477;45.222;5.688;2023-05-07T01:56:57;3.88;;;1.80;;
14770;SDS011;7477;45.222;5.688;2023-05-07T02:00:16;2.58;;;1.60;;
14770;SDS011;7477;45.222;5.688;2023-05-07T02:03:36;4.93;;;1.77;;
14770;SDS011;7477;45.222;5.688;2023-05-07T02:06:55;2.75;;;1.77;;
14770;SDS011;7477;45.222;5.688;2023-05-07T02:10:14;5.03;;;1.98;;
14770;SDS011;7477;45.222;5.688;2023-05-07T02:13:33;3.80;;;2.05;;
14770;SDS011;7477;45.222;5.688;2023-05-07T02:16:53;2.63;;;1.92;;
14770;SDS011;7477;45.222;5.688;2023-05-07T02:20:12;3.35;;;2.03;;
14770;SDS011;7477;45.222;5.688;2023-05-07T02:23:32;2.28;;;2.08;;
14770;SDS011;7477;45.222;5.688;2023-05-07T02:26:51;2.55;;;1.90;;
14770;SDS011;7477;45.222;5.688;2023-05-07T02:30:10;2.72;;;1.63;;
14770;SDS011;7477;45.222;5.688;2023-05-07T02:33:30;3.22;;;1.73;;
14770;SDS011;7477;45.222;5.688;2023-05-07T02:36:49;4.97;;;1.73;;
14770;SDS011;7477;45.222;5.688;2023-05-07T02:40:08;5.22;;;1.73;;
14770;SDS011;7477;45.222;5.688;2023-05-07T02:43:28;3.67;;;1.98;;
14770;SDS011;7477;45.222;5.688;2023-05-07T02:46:48;1.75;;;1.65;;
14770;SDS011;7477;45.222;5.688;2023-05-07T02:50:07;3.90;;;1.70;;
14770;SDS011;7477;45.222;5.688;2023-05-07T02:53:26;4.18;;;2.30;;
14770;SDS011;7477;45.222;5.688;2023-05-07T02:56:46;2.88;;;1.95;;
14770;SDS011;7477;45.222;5.688;2023-05-07T03:00:16;2.10;;;1.90;;
14770;SDS011;7477;45.222;5.688;2023-05-07T03:03:36;5.68;;;1.90;;
14770;SDS011;7477;45.222;5.688;2023-05-07T03:06:55;2.47;;;1.85;;
14770;SDS011;7477;45.222;5.688;2023-05-07T03:10:14;4.38;;;1.90;;
14770;SDS011;7477;45.222;5.688;2023-05-07T03:13:33;2.30;;;2.10;;
14770;SDS011;7477;45.222;5.688;2023-05-07T03:16:52;2.75;;;1.98;;
14770;SDS011;7477;45.222;5.688;2023-05-07T03:20:12;4.85;;;2.15;;
14770;SDS011;7477;45.222;5.688;2023-05-07T03:23:31;3.55;;;2.25;;
14770;SDS011;7477;45.222;5.688;2023-05-07T03:26:50;3.45;;;2.08;;
14770;SDS011;7477;45.222;5.688;2023-05-07T03:30:09;3.33;;;2.17;;
14770;SDS011;7477;45.222;5.688;2023-05-07T03:33:30;2.72;;;2.25;;
14770;SDS011;7477;45.222;5.688;2023-05-07T03:36:51;5.63;;;2.80;;
14770;SDS011;7477;45.222;5.688;2023-05-07T03:40:11;2.53;;;2.33;;
14770;SDS011;7477;45.222;5.688;2023-05-07T03:43:30;2.35;;;2.15;;
14770;SDS011;7477;45.222;5.688;2023-05-07T03:46:49;2.95;;;2.15;;
14770;SDS011;7477;45.222;5.688;2023-05-07T03:50:09;4.20;;;2.13;;
14770;SDS011;7477;45.222;5.688;2023-05-07T03:53:29;1.77;;;1.50;;
14770;SDS011;7477;45.222;5.688;2023-05-07T03:56:48;2.72;;;2.00;;
14770;SDS011;7477;45.222;5.688;2023-05-07T04:00:07;3.60;;;1.73;;
14770;SDS011;7477;45.222;5.688;2023-05-07T04:03:27;2.45;;;2.00;;
14770;SDS011;7477;45.222;5.688;2023-05-07T04:06:46;2.75;;;1.90;;
14770;SDS011;7477;45.222;5.688;2023-05-07T04:10:06;2.58;;;1.88;;
14770;SDS011;7477;45.222;5.688;2023-05-07T04:13:26;3.33;;;2.17;;
14770;SDS011;7477;45.222;5.688;2023-05-07T04:16:45;4.47;;;2.33;;
14770;SDS011;7477;45.222;5.688;2023-05-07T04:20:04;3.30;;;1.92;;
14770;SDS011;7477;45.222;5.688;2023-05-07T04:23:26;2.63;;;1.80;;
14770;SDS011;7477;45.222;5.688;2023-05-07T04:26:45;2.47;;;2.28;;
14770;SDS011;7477;45.222;5.688;2023-05-07T04:30:04;3.30;;;2.28;;
14770;SDS011;7477;45.222;5.688;2023-05-07T04:33:25;2.53;;;2.20;;
14770;SDS011;7477;45.222;5.688;2023-05-07T04:36:44;4.95;;;2.10;;
14770;SDS011;7477;45.222;5.688;2023-05-07T04:40:04;3.85;;;2.13;;
14770;SDS011;7477;45.222;5.688;2023-05-07T04:43:24;3.88;;;2.17;;
14770;SDS011;7477;45.222;5.688;2023-05-07T04:46:44;6.03;;;2.17;;
14770;SDS011;7477;45.222;5.688;2023-05-07T04:50:03;4.15;;;2.20;;
14770;SDS011;7477;45.222;5.688;2023-05-07T04:53:23;2.28;;;1.92;;
14770;SDS011;7477;45.222;5.688;2023-05-07T04:56:43;2.20;;;2.00;;
14770;SDS011;7477;45.222;5.688;2023-05-07T05:00:02;3.85;;;2.35;;
14770;SDS011;7477;45.222;5.688;2023-05-07T05:03:23;2.92;;;2.28;;
14770;SDS011;7477;45.222;5.688;2023-05-07T05:06:42;3.00;;;2.70;;
14770;SDS011;7477;45.222;5.688;2023-05-07T05:10:02;3.85;;;2.10;;
14770;SDS011;7477;45.222;5.688;2023-05-07T05:13:24;2.42;;;2.17;;
14770;SDS011;7477;45.222;5.688;2023-05-07T05:16:43;4.18;;;2.22;;
14770;SDS011;7477;45.222;5.688;2023-05-07T05:20:02;5.35;;;2.42;;
14770;SDS011;7477;45.222;5.688;2023-05-07T05:23:22;3.97;;;2.70;;
14770;SDS011;7477;45.222;5.688;2023-05-07T05:26:41;5.15;;;2.50;;
14770;SDS011;7477;45.222;5.688;2023-05-07T05:30:00;2.70;;;2.50;;
14770;SDS011;7477;45.222;5.688;2023-05-07T05:33:20;2.55;;;2.00;;
14770;SDS011;7477;45.222;5.688;2023-05-07T05:36:39;2.65;;;2.00;;
14770;SDS011;7477;45.222;5.688;2023-05-07T05:39:58;3.08;;;2.00;;
14770;SDS011;7477;45.222;5.688;2023-05-07T05:43:18;3.80;;;2.00;;
14770;SDS011;7477;45.222;5.688;2023-05-07T05:46:37;2.97;;;2.10;;
14770;SDS011;7477;45.222;5.688;2023-05-07T05:49:56;3.15;;;2.00;;
14770;SDS011;7477;45.222;5.688;2023-05-07T05:53:15;4.13;;;2.40;;
14770;SDS011;7477;45.222;5.688;2023-05-07T05:56:34;3.00;;;2.10;;
14770;SDS011;7477;45.222;5.688;2023-05-07T05:59:54;3.78;;;2.00;;
14770;SDS011;7477;45.222;5.688;2023-05-07T06:03:13;6.88;;;2.17;;
14770;SDS011;7477;45.222;5.688;2023-05-07T06:06:33;2.78;;;2.10;;
14770;SDS011;7477;45.222;5.688;2023-05-07T06:09:53;3.05;;;2.10;;
14770;SDS011;7477;45.222;5.688;2023-05-07T06:13:12;3.50;;;2.25;;
14770;SDS011;7477;45.222;5.688;2023-05-07T06:16:31;4.07;;;2.05;;
14770;SDS011;7477;45.222;5.688;2023-05-07T06:19:50;3.15;;;2.00;;
14770;SDS011;7477;45.222;5.688;2023-05-07T06:23:10;2.45;;;2.13;;
14770;SDS011;7477;45.222;5.688;2023-05-07T06:26:29;2.53;;;1.70;;
14770;SDS011;7477;45.222;5.688;2023-05-07T06:29:49;2.90;;;1.98;;
14770;SDS011;7477;45.222;5.688;2023-05-07T06:33:08;5.40;;;2.17;;
14770;SDS011;7477;45.222;5.688;2023-05-07T06:36:28;4.03;;;2.50;;
14770;SDS011;7477;45.222;5.688;2023-05-07T06:39:47;2.75;;;2.33;;
14770;SDS011;7477;45.222;5.688;2023-05-07T06:43:06;4.00;;;2.50;;
14770;SDS011;7477;45.222;5.688;2023-05-07T06:46:26;3.28;;;2.58;;
14770;SDS011;7477;45.222;5.688;2023-05-07T06:49:46;3.10;;;2.25;;
14770;SDS011;7477;45.222;5.688;2023-05-07T06:53:05;3.45;;;2.10;;
14770;SDS011;7477;45.222;5.688;2023-05-07T06:56:24;3.72;;;2.15;;
14770;SDS011;7477;45.222;5.688;2023-05-07T06:59:44;2.70;;;2.30;;
14770;SDS011;7477;45.222;5.688;2023-05-07T07:03:03;2.92;;;1.95;;
14770;SDS011;7477;45.222;5.688;2023-05-07T07:06:22;2.08;;;1.55;;
14770;SDS011;7477;45.222;5.688;2023-05-07T07:09:41;1.80;;;1.70;;
14770;SDS011;7477;45.222;5.688;2023-05-07T07:13:00;2.95;;;1.83;;
14770;SDS011;7477;45.222;5.688;2023-05-07T07:16:20;2.05;;;1.85;;
14770;SDS011;7477;45.222;5.688;2023-05-07T07:19:40;3.63;;;2.03;;
14770;SDS011;7477;45.222;5.688;2023-05-07T07:22:59;3.28;;;1.85;;
14770;SDS011;7477;45.222;5.688;2023-05-07T07:26:18;2.63;;;1.80;;
14770;SDS011;7477;45.222;5.688;2023-05-07T07:29:37;1.92;;;1.55;;
14770;SDS011;7477;45.222;5.688;2023-05-07T07:32:56;3.88;;;1.95;;
14770;SDS011;7477;45.222;5.688;2023-05-07T07:36:20;1.92;;;1.67;;
14770;SDS011;7477;45.222;5.688;2023-05-07T07:39:40;3.60;;;1.52;;
14770;SDS011;7477;45.222;5.688;2023-05-07T07:42:59;1.45;;;1.35;;
14770;SDS011;7477;45.222;5.688;2023-05-07T07:46:20;2.83;;;1.63;;
14770;SDS011;7477;45.222;5.688;2023-05-07T07:49:39;5.38;;;1.70;;
14770;SDS011;7477;45.222;5.688;2023-05-07T07:52:58;4.05;;;1.40;;
14770;SDS011;7477;45.222;5.688;2023-05-07T07:56:17;2.40;;;1.80;;
14770;SDS011;7477;45.222;5.688;2023-05-07T07:59:36;3.30;;;1.50;;
14770;SDS011;7477;45.222;5.688;2023-05-07T08:02:55;2.67;;;2.00;;
14770;SDS011;7477;45.222;5.688;2023-05-07T08:06:15;2.72;;;1.58;;
14770;SDS011;7477;45.222;5.688;2023-05-07T08:09:34;2.67;;;1.40;;
14770;SDS011;7477;45.222;5.688;2023-05-07T08:12:53;2.78;;;1.40;;
14770;SDS011;7477;45.222;5.688;2023-05-07T08:16:13;3.30;;;1.88;;
14770;SDS011;7477;45.222;5.688;2023-05-07T08:19:33;1.98;;;1.77;;
14770;SDS011;7477;45.222;5.688;2023-05-07T08:22:52;4.72;;;1.85;;
14770;SDS011;7477;45.222;5.688;2023-05-07T08:26:11;3.05;;;1.67;;
14770;SDS011;7477;45.222;5.688;2023-05-07T08:29:30;3.13;;;2.10;;
14770;SDS011;7477;45.222;5.688;2023-05-07T08:32:49;3.58;;;1.60;;
14770;SDS011;7477;45.222;5.688;2023-05-07T08:36:09;2.30;;;1.73;;
14770;SDS011;7477;45.222;5.688;2023-05-07T08:39:28;4.47;;;2.10;;
14770;SDS011;7477;45.222;5.688;2023-05-07T08:42:48;4.10;;;2.10;;
14770;SDS011;7477;45.222;5.688;2023-05-07T08:46:09;3.38;;;1.77;;
14770;SDS011;7477;45.222;5.688;2023-05-07T08:49:32;3.58;;;1.67;;
14770;SDS011;7477;45.222;5.688;2023-05-07T08:52:52;2.90;;;2.00;;
14770;SDS011;7477;45.222;5.688;2023-05-07T08:56:12;2.50;;;1.95;;
14770;SDS011;7477;45.222;5.688;2023-05-07T08:59:34;2.00;;;1.80;;
14770;SDS011;7477;45.222;5.688;2023-05-07T09:02:53;3.80;;;2.03;;
14770;SDS011;7477;45.222;5.688;2023-05-07T09:06:13;3.33;;;2.00;;
14770;SDS011;7477;45.222;5.688;2023-05-07T09:09:32;4.47;;;2.05;;
14770;SDS011;7477;45.222;5.688;2023-05-07T09:12:52;2.70;;;1.58;;
14770;SDS011;7477;45.222;5.688;2023-05-07T09:16:12;5.70;;;2.00;;
14770;SDS011;7477;45.222;5.688;2023-05-07T09:19:32;2.80;;;1.90;;
14770;SDS011;7477;45.222;5.688;2023-05-07T09:22:51;3.55;;;2.22;;
14770;SDS011;7477;45.222;5.688;2023-05-07T09:26:14;3.67;;;2.13;;
14770;SDS011;7477;45.222;5.688;2023-05-07T09:29:33;3.58;;;1.90;;
14770;SDS011;7477;45.222;5.688;2023-05-07T09:32:54;3.05;;;1.73;;
14770;SDS011;7477;45.222;5.688;2023-05-07T09:36:13;2.22;;;1.60;;
14770;SDS011;7477;45.222;5.688;2023-05-07T09:43:09;2.35;;;1.63;;
14770;SDS011;7477;45.222;5.688;2023-05-07T09:46:30;2.10;;;1.50;;
14770;SDS011;7477;45.222;5.688;2023-05-07T09:49:51;3.83;;;1.60;;
14770;SDS011;7477;45.222;5.688;2023-05-07T09:53:16;3.97;;;1.88;;
14770;SDS011;7477;45.222;5.688;2023-05-07T09:56:36;3.30;;;1.83;;
14770;SDS011;7477;45.222;5.688;2023-05-07T09:59:56;2.13;;;1.65;;
14770;SDS011;7477;45.222;5.688;2023-05-07T10:03:17;3.40;;;1.90;;
14770;SDS011;7477;45.222;5.688;2023-05-07T10:06:39;1.75;;;1.45;;
14770;SDS011;7477;45.222;5.688;2023-05-07T10:09:59;1.40;;;1.30;;
14770;SDS011;7477;45.222;5.688;2023-05-07T10:13:20;1.95;;;1.52;;
14770;SDS011;7477;45.222;5.688;2023-05-07T10:16:40;2.45;;;1.80;;
14770;SDS011;7477;45.222;5.688;2023-05-07T10:20:00;4.03;;;1.88;;
14770;SDS011;7477;45.222;5.688;2023-05-07T10:23:19;2.03;;;1.67;;
14770;SDS011;7477;45.222;5.688;2023-05-07T10:26:43;1.95;;;1.80;;
14770;SDS011;7477;45.222;5.688;2023-05-07T10:33:26;1.60;;;1.50;;
14770;SDS011;7477;45.222;5.688;2023-05-07T10:36:48;2.70;;;1.90;;
14770;SDS011;7477;45.222;5.688;2023-05-07T10:40:09;2.53;;;1.63;;
14770;SDS011;7477;45.222;5.688;2023-05-07T10:43:43;1.58;;;1.48;;
14770;SDS011;7477;45.222;5.688;2023-05-07T10:47:07;1.65;;;1.55;;
14770;SDS011;7477;45.222;5.688;2023-05-07T10:50:27;3.83;;;1.70;;
14770;SDS011;7477;45.222;5.688;2023-05-07T10:53:47;2.05;;;1.70;;
14770;SDS011;7477;45.222;5.688;2023-05-07T10:57:39;4.68;;;1.83;;
14770;SDS011;7477;45.222;5.688;2023-05-07T11:00:58;2.38;;;1.70;;
14770;SDS011;7477;45.222;5.688;2023-05-07T11:04:19;3.20;;;1.70;;
14770;SDS011;7477;45.222;5.688;2023-05-07T11:08:00;1.70;;;1.60;;
14770;SDS011;7477;45.222;5.688;2023-05-07T11:11:26;2.13;;;1.65;;
14770;SDS011;7477;45.222;5.688;2023-05-07T11:15:14;3.38;;;1.80;;
14770;SDS011;7477;45.222;5.688;2023-05-07T11:18:52;2.30;;;1.80;;
14770;SDS011;7477;45.222;5.688;2023-05-07T11:26:05;1.85;;;1.70;;
14770;SDS011;7477;45.222;5.688;2023-05-07T11:29:29;3.58;;;1.88;;
14770;SDS011;7477;45.222;5.688;2023-05-07T11:32:49;2.97;;;1.70;;
14770;SDS011;7477;45.222;5.688;2023-05-07T11:36:09;2.20;;;1.80;;
14770;SDS011;7477;45.222;5.688;2023-05-07T11:39:30;2.58;;;1.67;;
14770;SDS011;7477;45.222;5.688;2023-05-07T11:42:51;2.17;;;1.52;;
14770;SDS011;7477;45.222;5.688;2023-05-07T11:46:11;1.85;;;1.65;;
14770;SDS011;7477;45.222;5.688;2023-05-07T11:49:31;2.33;;;2.00;;
14770;SDS011;7477;45.222;5.688;2023-05-07T11:52:51;2.08;;;1.55;;
14770;SDS011;7477;45.222;5.688;2023-05-07T11:56:14;2.00;;;1.65;;
14770;SDS011;7477;45.222;5.688;2023-05-07T11:59:38;2.20;;;2.00;;
14770;SDS011;7477;45.222;5.688;2023-05-07T12:03:06;1.80;;;1.70;;
14770;SDS011;7477;45.222;5.688;2023-05-07T12:06:25;1.65;;;1.55;;
14770;SDS011;7477;45.222;5.688;2023-05-07T12:09:45;3.85;;;1.80;;
14770;SDS011;7477;45.222;5.688;2023-05-07T12:13:13;3.10;;;1.70;;
14770;SDS011;7477;45.222;5.688;2023-05-07T12:16:37;5.55;;;2.20;;
14770;SDS011;7477;45.222;5.688;2023-05-07T12:19:58;2.15;;;1.98;;
14770;SDS011;7477;45.222;5.688;2023-05-07T12:23:19;3.10;;;1.73;;
14770;SDS011;7477;45.222;5.688;2023-05-07T12:26:40;2.22;;;2.03;;
14770;SDS011;7477;45.222;5.688;2023-05-07T12:29:59;2.38;;;2.00;;
14770;SDS011;7477;45.222;5.688;2023-05-07T12:33:22;2.25;;;1.80;;
14770;SDS011;7477;45.222;5.688;2023-05-07T12:36:43;2.20;;;1.73;;
14770;SDS011;7477;45.222;5.688;2023-05-07T12:40:04;3.38;;;1.98;;
14770;SDS011;7477;45.222;5.688;2023-05-07T12:43:27;4.43;;;2.10;;
14770;SDS011;7477;45.222;5.688;2023-05-07T12:46:47;2.30;;;2.10;;
14770;SDS011;7477;45.222;5.688;2023-05-07T12:50:07;2.78;;;1.83;;
14770;SDS011;7477;45.222;5.688;2023-05-07T12:53:27;2.40;;;2.20;;
14770;SDS011;7477;45.222;5.688;2023-05-07T12:56:47;3.38;;;1.92;;
14770;SDS011;7477;45.222;5.688;2023-05-07T13:00:07;2.00;;;1.80;;
14770;SDS011;7477;45.222;5.688;2023-05-07T13:03:32;1.88;;;1.70;;
14770;SDS011;7477;45.222;5.688;2023-05-07T13:06:53;2.70;;;1.92;;
14770;SDS011;7477;45.222;5.688;2023-05-07T13:10:12;3.58;;;2.28;;
14770;SDS011;7477;45.222;5.688;2023-05-07T13:13:32;4.97;;;2.15;;
14770;SDS011;7477;45.222;5.688;2023-05-07T13:16:52;2.60;;;2.17;;
14770;SDS011;7477;45.222;5.688;2023-05-07T13:20:11;2.78;;;2.10;;
14770;SDS011;7477;45.222;5.688;2023-05-07T13:23:31;7.22;;;2.20;;
14770;SDS011;7477;45.222;5.688;2023-05-07T13:26:50;3.83;;;1.98;;
14770;SDS011;7477;45.222;5.688;2023-05-07T13:30:10;2.20;;;1.95;;
14770;SDS011;7477;45.222;5.688;2023-05-07T13:33:30;1.80;;;1.70;;
14770;SDS011;7477;45.222;5.688;2023-05-07T13:36:49;3.10;;;1.90;;
14770;SDS011;7477;45.222;5.688;2023-05-07T13:40:08;3.80;;;2.15;;
14770;SDS011;7477;45.222;5.688;2023-05-07T13:43:28;1.80;;;1.70;;
14770;SDS011;7477;45.222;5.688;2023-05-07T13:46:47;1.88;;;1.75;;
14770;SDS011;7477;45.222;5.688;2023-05-07T13:50:07;2.60;;;1.90;;
14770;SDS011;7477;45.222;5.688;2023-05-07T13:53:27;2.20;;;1.98;;
14770;SDS011;7477;45.222;5.688;2023-05-07T13:56:47;1.83;;;1.65;;
14770;SDS011;7477;45.222;5.688;2023-05-07T14:00:07;3.17;;;1.90;;
14770;SDS011;7477;45.222;5.688;2023-05-07T14:03:27;3.53;;;1.70;;
14770;SDS011;7477;45.222;5.688;2023-05-07T14:06:47;2.20;;;2.00;;
14770;SDS011;7477;45.222;5.688;2023-05-07T14:10:06;2.42;;;1.90;;
14770;SDS011;7477;45.222;5.688;2023-05-07T14:13:26;2.50;;;2.30;;
14770;SDS011;7477;45.222;5.688;2023-05-07T14:16:45;3.15;;;1.90;;
14770;SDS011;7477;45.222;5.688;2023-05-07T14:20:05;2.58;;;1.92;;
14770;SDS011;7477;45.222;5.688;2023-05-07T14:23:26;1.90;;;1.73;;
14770;SDS011;7477;45.222;5.688;2023-05-07T14:26:45;1.98;;;1.80;;
14770;SDS011;7477;45.222;5.688;2023-05-07T14:30:04;2.03;;;1.90;;
14770;SDS011;7477;45.222;5.688;2023-05-07T14:33:24;2.05;;;1.85;;
14770;SDS011;7477;45.222;5.688;2023-05-07T14:36:45;2.10;;;1.77;;
14770;SDS011;7477;45.222;5.688;2023-05-07T14:40:05;1.88;;;1.67;;
14770;SDS011;7477;45.222;5.688;2023-05-07T14:43:25;2.95;;;1.80;;
14770;SDS011;7477;45.222;5.688;2023-05-07T14:46:44;2.47;;;1.90;;
14770;SDS011;7477;45.222;5.688;2023-05-07T14:50:04;2.45;;;2.20;;
14770;SDS011;7477;45.222;5.688;2023-05-07T14:53:23;3.55;;;2.00;;
14770;SDS011;7477;45.222;5.688;2023-05-07T14:56:43;2.55;;;1.88;;
14770;SDS011;7477;45.222;5.688;2023-05-07T15:00:03;3.50;;;2.30;;
14770;SDS011;7477;45.222;5.688;2023-05-07T15:03:26;1.95;;;1.83;;
14770;SDS011;7477;45.222;5.688;2023-05-07T15:06:45;3.35;;;2.08;;
14770;SDS011;7477;45.222;5.688;2023-05-07T15:10:05;2.90;;;2.53;;
14770;SDS011;7477;45.222;5.688;2023-05-07T15:13:25;3.25;;;1.73;;
14770;SDS011;7477;45.222;5.688;2023-05-07T15:16:44;3.05;;;1.70;;
14770;SDS011;7477;45.222;5.688;2023-05-07T15:20:04;4.05;;;2.10;;
14770;SDS011;7477;45.222;5.688;2023-05-07T15:23:24;2.75;;;2.00;;
14770;SDS011;7477;45.222;5.688;2023-05-07T15:26:44;2.00;;;1.90;;
14770;SDS011;7477;45.222;5.688;2023-05-07T15:30:04;1.70;;;1.60;;
14770;SDS011;7477;45.222;5.688;2023-05-07T15:33:24;2.38;;;1.70;;
14770;SDS011;7477;45.222;5.688;2023-05-07T15:36:43;2.50;;;2.17;;
14770;SDS011;7477;45.222;5.688;2023-05-07T15:40:03;3.55;;;2.17;;
14770;SDS011;7477;45.222;5.688;2023-05-07T15:43:25;2.47;;;1.85;;
14770;SDS011;7477;45.222;5.688;2023-05-07T15:46:44;2.17;;;1.98;;
14770;SDS011;7477;45.222;5.688;2023-05-07T15:50:03;2.17;;;1.98;;
14770;SDS011;7477;45.222;5.688;2023-05-07T15:53:23;3.47;;;2.00;;
14770;SDS011;7477;45.222;5.688;2023-05-07T15:56:42;2.33;;;2.13;;
14770;SDS011;7477;45.222;5.688;2023-05-07T16:00:03;1.77;;;1.67;;
14770;SDS011;7477;45.222;5.688;2023-05-07T16:03:23;1.98;;;1.88;;
14770;SDS011;7477;45.222;5.688;2023-05-07T16:06:43;1.70;;;1.42;;
14770;SDS011;7477;45.222;5.688;2023-05-07T16:10:05;1.60;;;1.30;;
14770;SDS011;7477;45.222;5.688;2023-05-07T16:13:26;1.42;;;1.30;;
14770;SDS011;7477;45.222;5.688;2023-05-07T16:16:45;1.40;;;1.30;;
14770;SDS011;7477;45.222;5.688;2023-05-07T16:20:04;2.28;;;1.30;;
14770;SDS011;7477;45.222;5.688;2023-05-07T16:23:24;2.25;;;1.67;;
14770;SDS011;7477;45.222;5.688;2023-05-07T16:26:43;3.28;;;1.80;;
14770;SDS011;7477;45.222;5.688;2023-05-07T16:30:02;1.83;;;1.50;;
14770;SDS011;7477;45.222;5.688;2023-05-07T16:33:22;6.07;;;3.75;;
14770;SDS011;7477;45.222;5.688;2023-05-07T16:36:41;7.95;;;4.00;;
14770;SDS011;7477;45.222;5.688;2023-05-07T16:40:00;8.43;;;4.15;;
14770;SDS011;7477;45.222;5.688;2023-05-07T16:43:24;8.40;;;5.13;;
14770;SDS011;7477;45.222;5.688;2023-05-07T16:46:43;10.30;;;5.72;;
14770;SDS011;7477;45.222;5.688;2023-05-07T16:50:03;6.25;;;3.78;;
14770;SDS011;7477;45.222;5.688;2023-05-07T16:53:23;6.15;;;4.32;;
14770;SDS011;7477;45.222;5.688;2023-05-07T16:56:42;5.38;;;3.55;;
14770;SDS011;7477;45.222;5.688;2023-05-07T17:00:02;3.85;;;2.60;;
14770;SDS011;7477;45.222;5.688;2023-05-07T17:03:25;7.82;;;2.42;;
14770;SDS011;7477;45.222;5.688;2023-05-07T17:06:44;3.40;;;2.30;;
14770;SDS011;7477;45.222;5.688;2023-05-07T17:10:04;2.67;;;2.13;;
14770;SDS011;7477;45.222;5.688;2023-05-07T17:13:24;2.20;;;1.98;;
14770;SDS011;7477;45.222;5.688;2023-05-07T17:16:43;2.10;;;1.42;;
14770;SDS011;7477;45.222;5.688;2023-05-07T17:20:02;1.77;;;1.58;;
14770;SDS011;7477;45.222;5.688;2023-05-07T17:23:24;2.28;;;2.08;;
14770;SDS011;7477;45.222;5.688;2023-05-07T17:26:43;2.30;;;1.70;;
14770;SDS011;7477;45.222;5.688;2023-05-07T17:30:05;4.05;;;1.60;;
14770;SDS011;7477;45.222;5.688;2023-05-07T17:33:25;2.40;;;1.63;;
14770;SDS011;7477;45.222;5.688;2023-05-07T17:36:44;4.40;;;2.08;;
14770;SDS011;7477;45.222;5.688;2023-05-07T17:40:04;3.60;;;1.77;;
14770;SDS011;7477;45.222;5.688;2023-05-07T17:43:24;2.90;;;2.08;;
14770;SDS011;7477;45.222;5.688;2023-05-07T17:46:43;2.20;;;1.65;;
14770;SDS011;7477;45.222;5.688;2023-05-07T17:50:02;1.50;;;1.40;;
14770;SDS011;7477;45.222;5.688;2023-05-07T17:53:26;2.25;;;1.67;;
14770;SDS011;7477;45.222;5.688;2023-05-07T17:56:46;2.55;;;1.80;;
14770;SDS011;7477;45.222;5.688;2023-05-07T18:00:05;1.40;;;1.30;;
14770;SDS011;7477;45.222;5.688;2023-05-07T18:03:25;2.10;;;1.20;;
14770;SDS011;7477;45.222;5.688;2023-05-07T18:06:46;2.58;;;1.60;;
14770;SDS011;7477;45.222;5.688;2023-05-07T18:10:06;1.38;;;1.10;;
14770;SDS011;7477;45.222;5.688;2023-05-07T18:13:26;2.90;;;1.30;;
14770;SDS011;7477;45.222;5.688;2023-05-07T18:16:45;1.92;;;1.27;;
14770;SDS011;7477;45.222;5.688;2023-05-07T18:20:04;1.33;;;1.20;;
14770;SDS011;7477;45.222;5.688;2023-05-07T18:23:26;3.55;;;1.20;;
14770;SDS011;7477;45.222;5.688;2023-05-07T18:26:45;1.88;;;1.58;;
14770;SDS011;7477;45.222;5.688;2023-05-07T18:30:06;3.35;;;2.33;;
14770;SDS011;7477;45.222;5.688;2023-05-07T18:33:29;3.17;;;1.95;;
14770;SDS011;7477;45.222;5.688;2023-05-07T18:36:49;1.00;;;0.95;;
14770;SDS011;7477;45.222;5.688;2023-05-07T18:40:08;3.50;;;1.40;;
14770;SDS011;7477;45.222;5.688;2023-05-07T18:43:28;0.90;;;0.90;;
14770;SDS011;7477;45.222;5.688;2023-05-07T18:46:47;1.20;;;1.10;;
14770;SDS011;7477;45.222;5.688;2023-05-07T18:50:07;1.55;;;1.13;;
14770;SDS011;7477;45.222;5.688;2023-05-07T18:53:28;1.08;;;0.90;;
14770;SDS011;7477;45.222;5.688;2023-05-07T18:56:47;0.90;;;0.90;;
14770;SDS011;7477;45.222;5.688;2023-05-07T19:00:06;1.05;;;0.95;;
14770;SDS011;7477;45.222;5.688;2023-05-07T19:03:27;0.95;;;0.90;;
14770;SDS011;7477;45.222;5.688;2023-05-07T19:06:47;0.98;;;0.85;;
14770;SDS011;7477;45.222;5.688;2023-05-07T19:10:06;0.90;;;0.90;;
14770;SDS011;7477;45.222;5.688;2023-05-07T19:13:27;1.08;;;1.08;;
14770;SDS011;7477;45.222;5.688;2023-05-07T19:16:46;0.98;;;0.88;;
14770;SDS011;7477;45.222;5.688;2023-05-07T19:20:05;2.33;;;1.17;;
14770;SDS011;7477;45.222;5.688;2023-05-07T19:23:25;1.15;;;1.05;;
14770;SDS011;7477;45.222;5.688;2023-05-07T19:26:44;0.68;;;0.43;;
14770;SDS011;7477;45.222;5.688;2023-05-07T19:30:04;0.90;;;0.90;;
14770;SDS011;7477;45.222;5.688;2023-05-07T19:33:25;0.80;;;0.80;;
14770;SDS011;7477;45.222;5.688;2023-05-07T19:36:47;0.73;;;0.73;;
14770;SDS011;7477;45.222;5.688;2023-05-07T19:40:06;0.70;;;0.70;;
14770;SDS011;7477;45.222;5.688;2023-05-07T19:43:27;1.23;;;0.95;;
14770;SDS011;7477;45.222;5.688;2023-05-07T19:46:49;3.80;;;0.90;;
14770;SDS011;7477;45.222;5.688;2023-05-07T19:50:10;1.58;;;0.75;;
14770;SDS011;7477;45.222;5.688;2023-05-07T19:53:29;1.15;;;0.80;;
14770;SDS011;7477;45.222;5.688;2023-05-07T19:56:49;0.68;;;0.68;;
14770;SDS011;7477;45.222;5.688;2023-05-07T20:00:08;1.10;;;1.10;;
14770;SDS011;7477;45.222;5.688;2023-05-07T20:03:30;0.85;;;0.85;;
14770;SDS011;7477;45.222;5.688;2023-05-07T20:06:50;0.65;;;0.65;;
14770;SDS011;7477;45.222;5.688;2023-05-07T20:10:09;0.85;;;0.77;;
14770;SDS011;7477;45.222;5.688;2023-05-07T20:13:29;0.80;;;0.80;;
14770;SDS011;7477;45.222;5.688;2023-05-07T20:16:49;2.28;;;1.00;;
14770;SDS011;7477;45.222;5.688;2023-05-07T20:20:08;3.30;;;1.05;;
14770;SDS011;7477;45.222;5.688;2023-05-07T20:23:28;1.05;;;0.95;;
14770;SDS011;7477;45.222;5.688;2023-05-07T20:26:48;1.42;;;1.25;;
14770;SDS011;7477;45.222;5.688;2023-05-07T20:30:07;2.05;;;0.95;;
14770;SDS011;7477;45.222;5.688;2023-05-07T20:33:27;1.50;;;1.30;;